Huvudsida
METAR-TAF:

METAR-TAF

Flygplatser :

Stockholm-Arlanda, Sverige

Arlanda

latitud: 59-39N, longitud: 017-57E, höjd: 38 m

Aktuellt väderrapport

Denna rapport gjordes för 28 minuter sedan, klockan 02:50 UTC
Vind 6 kt från nord/nordost
Temperatur -5°C
Fuktighet 86%
Tryck 999 hPa
Sikt 10 km eller mer
Inga moln under 1 500 m eller inga cumulonimbus

METAR: ESSA 190250Z 03006KT CAVOK M05/M07 Q0999 R01L/510163 R01R/510176 R08/510172 NOSIG

Tid: 04:18 (03:18 UTC)

Väderprognos

Denna rapport gjordes för 3 timmar och 48 minuter sedan, klockan 23:30 UTC
Prognos gäller från 19 kl. 00 UTC till 19 kl. 24 UTC
Vind 8 kt från nordost
Sikt 10 km eller mer
Brutna moln på en höjd av 4500 ft

TAF: ESSA 182330Z 1900/1924 04008KT 9999 BKN045

Aktuella väderrapporter och prognoser från 4000 flygplatser (METAR- och TAF-rapporter).

De tillgängliga stationerna syns som gula och röda prickar på kartan.

För musen över prickarna för att se namnen på stationerna.

Klicka sedan för att få väderrapporter och prognoser.

För att ändra kartan: Klicka på de gröna knapparna med ett svart kors på för att zooma in; den gröna knappen med ett streck på för att zooma ut; eller på de gröna pilarna för angränsande kartor.


METAR-TAF: